You are listening to:
KJXN Del/Gnd/Twr/App - Jackson, Michigan, United States

KJXN 190856Z AUTO 11004KT 10SM CLR 16/11 A3016 RMK AO2 SLP208 T01560111 58004

If stream does not start automatically press the play button